sensor_id;sensor_type;location;lat;lon;timestamp;P1;durP1;ratioP1;P2;durP2;ratioP2
77866;SDS011;67271;59.120;37.970;2023-07-31T00:04:15;4.95;;;3.03;;
77866;SDS011;67271;59.120;37.970;2023-07-31T00:06:41;12.68;;;3.85;;
77866;SDS011;67271;59.120;37.970;2023-07-31T00:09:07;8.13;;;4.18;;
77866;SDS011;67271;59.120;37.970;2023-07-31T00:11:33;6.03;;;3.28;;
77866;SDS011;67271;59.120;37.970;2023-07-31T00:13:59;4.63;;;3.20;;
77866;SDS011;67271;59.120;37.970;2023-07-31T00:16:24;5.15;;;3.10;;
77866;SDS011;67271;59.120;37.970;2023-07-31T00:18:50;5.68;;;2.53;;
77866;SDS011;67271;59.120;37.970;2023-07-31T00:21:16;7.03;;;2.70;;
77866;SDS011;67271;59.120;37.970;2023-07-31T00:23:42;6.25;;;2.97;;
77866;SDS011;67271;59.120;37.970;2023-07-31T00:26:08;8.32;;;2.97;;
77866;SDS011;67271;59.120;37.970;2023-07-31T00:28:34;4.97;;;3.13;;
77866;SDS011;67271;59.120;37.970;2023-07-31T00:31:00;6.10;;;2.92;;
77866;SDS011;67271;59.120;37.970;2023-07-31T00:33:27;5.35;;;3.00;;
77866;SDS011;67271;59.120;37.970;2023-07-31T00:35:53;5.15;;;2.75;;
77866;SDS011;67271;59.120;37.970;2023-07-31T00:38:19;6.32;;;2.80;;
77866;SDS011;67271;59.120;37.970;2023-07-31T00:40:45;6.55;;;2.90;;
77866;SDS011;67271;59.120;37.970;2023-07-31T00:43:10;6.25;;;2.88;;
77866;SDS011;67271;59.120;37.970;2023-07-31T00:45:36;7.65;;;3.35;;
77866;SDS011;67271;59.120;37.970;2023-07-31T00:48:03;6.20;;;3.60;;
77866;SDS011;67271;59.120;37.970;2023-07-31T00:50:31;11.52;;;3.55;;
77866;SDS011;67271;59.120;37.970;2023-07-31T00:52:58;5.68;;;3.03;;
77866;SDS011;67271;59.120;37.970;2023-07-31T00:55:24;7.78;;;3.72;;
77866;SDS011;67271;59.120;37.970;2023-07-31T00:57:50;9.50;;;4.35;;
77866;SDS011;67271;59.120;37.970;2023-07-31T01:00:18;17.77;;;5.38;;
77866;SDS011;67271;59.120;37.970;2023-07-31T01:02:45;8.57;;;4.00;;
77866;SDS011;67271;59.120;37.970;2023-07-31T01:05:12;6.50;;;3.60;;
77866;SDS011;67271;59.120;37.970;2023-07-31T01:10:16;7.82;;;4.00;;
77866;SDS011;67271;59.120;37.970;2023-07-31T01:12:47;8.82;;;4.30;;
77866;SDS011;67271;59.120;37.970;2023-07-31T01:15:15;7.60;;;4.22;;
77866;SDS011;67271;59.120;37.970;2023-07-31T01:17:43;6.95;;;3.80;;
77866;SDS011;67271;59.120;37.970;2023-07-31T01:20:27;6.78;;;4.25;;
77866;SDS011;67271;59.120;37.970;2023-07-31T01:25:48;7.32;;;4.63;;
77866;SDS011;67271;59.120;37.970;2023-07-31T01:28:35;6.30;;;4.10;;
77866;SDS011;67271;59.120;37.970;2023-07-31T01:31:10;11.05;;;4.40;;
77866;SDS011;67271;59.120;37.970;2023-07-31T01:33:40;7.72;;;3.80;;
77866;SDS011;67271;59.120;37.970;2023-07-31T01:36:06;6.90;;;3.13;;
77866;SDS011;67271;59.120;37.970;2023-07-31T01:38:33;5.10;;;3.65;;
77866;SDS011;67271;59.120;37.970;2023-07-31T01:41:01;7.57;;;3.60;;
77866;SDS011;67271;59.120;37.970;2023-07-31T01:43:27;7.90;;;3.10;;
77866;SDS011;67271;59.120;37.970;2023-07-31T01:45:53;4.50;;;3.10;;
77866;SDS011;67271;59.120;37.970;2023-07-31T01:48:19;10.88;;;3.08;;
77866;SDS011;67271;59.120;37.970;2023-07-31T01:50:45;6.53;;;3.10;;
77866;SDS011;67271;59.120;37.970;2023-07-31T01:53:11;5.85;;;3.17;;
77866;SDS011;67271;59.120;37.970;2023-07-31T01:55:38;5.55;;;3.20;;
77866;SDS011;67271;59.120;37.970;2023-07-31T01:58:04;5.53;;;3.28;;
77866;SDS011;67271;59.120;37.970;2023-07-31T02:00:33;7.40;;;3.50;;
77866;SDS011;67271;59.120;37.970;2023-07-31T02:03:00;6.75;;;2.92;;
77866;SDS011;67271;59.120;37.970;2023-07-31T02:05:26;5.38;;;3.28;;
77866;SDS011;67271;59.120;37.970;2023-07-31T02:07:52;3.95;;;2.80;;
77866;SDS011;67271;59.120;37.970;2023-07-31T02:10:17;4.32;;;3.13;;
77866;SDS011;67271;59.120;37.970;2023-07-31T02:12:43;5.85;;;2.90;;
77866;SDS011;67271;59.120;37.970;2023-07-31T02:15:09;5.55;;;2.90;;
77866;SDS011;67271;59.120;37.970;2023-07-31T02:17:35;3.65;;;2.60;;
77866;SDS011;67271;59.120;37.970;2023-07-31T02:20:01;4.88;;;3.03;;
77866;SDS011;67271;59.120;37.970;2023-07-31T02:22:27;3.85;;;2.80;;
77866;SDS011;67271;59.120;37.970;2023-07-31T02:24:54;4.63;;;3.13;;
77866;SDS011;67271;59.120;37.970;2023-07-31T02:27:21;4.57;;;3.00;;
77866;SDS011;67271;59.120;37.970;2023-07-31T02:29:49;8.13;;;3.45;;
77866;SDS011;67271;59.120;37.970;2023-07-31T02:32:15;4.70;;;3.10;;
77866;SDS011;67271;59.120;37.970;2023-07-31T02:34:41;5.35;;;3.33;;
77866;SDS011;67271;59.120;37.970;2023-07-31T02:37:09;4.30;;;3.25;;
77866;SDS011;67271;59.120;37.970;2023-07-31T02:39:35;5.53;;;3.10;;
77866;SDS011;67271;59.120;37.970;2023-07-31T02:42:01;4.15;;;3.00;;
77866;SDS011;67271;59.120;37.970;2023-07-31T02:44:27;4.72;;;2.95;;
77866;SDS011;67271;59.120;37.970;2023-07-31T02:46:53;5.05;;;3.38;;
77866;SDS011;67271;59.120;37.970;2023-07-31T02:49:19;6.28;;;2.97;;
77866;SDS011;67271;59.120;37.970;2023-07-31T02:51:45;7.10;;;3.20;;
77866;SDS011;67271;59.120;37.970;2023-07-31T02:54:11;6.93;;;3.42;;
77866;SDS011;67271;59.120;37.970;2023-07-31T02:56:37;6.68;;;3.40;;
77866;SDS011;67271;59.120;37.970;2023-07-31T02:59:03;4.25;;;2.90;;
77866;SDS011;67271;59.120;37.970;2023-07-31T03:01:29;5.22;;;3.63;;
77866;SDS011;67271;59.120;37.970;2023-07-31T03:03:55;7.90;;;3.42;;
77866;SDS011;67271;59.120;37.970;2023-07-31T03:06:21;6.20;;;3.30;;
77866;SDS011;67271;59.120;37.970;2023-07-31T03:08:47;7.10;;;4.28;;
77866;SDS011;67271;59.120;37.970;2023-07-31T03:11:14;4.65;;;3.47;;
77866;SDS011;67271;59.120;37.970;2023-07-31T03:13:40;4.82;;;3.22;;
77866;SDS011;67271;59.120;37.970;2023-07-31T03:16:05;4.78;;;3.08;;
77866;SDS011;67271;59.120;37.970;2023-07-31T03:18:31;6.43;;;2.90;;
77866;SDS011;67271;59.120;37.970;2023-07-31T03:20:57;3.30;;;3.00;;
77866;SDS011;67271;59.120;37.970;2023-07-31T03:23:23;4.45;;;2.88;;
77866;SDS011;67271;59.120;37.970;2023-07-31T03:25:57;7.22;;;3.40;;
77866;SDS011;67271;59.120;37.970;2023-07-31T03:28:27;7.57;;;3.25;;
77866;SDS011;67271;59.120;37.970;2023-07-31T03:30:53;6.47;;;3.40;;
77866;SDS011;67271;59.120;37.970;2023-07-31T03:33:19;5.75;;;3.55;;
77866;SDS011;67271;59.120;37.970;2023-07-31T03:35:48;11.85;;;3.78;;
77866;SDS011;67271;59.120;37.970;2023-07-31T03:38:15;10.38;;;3.85;;
77866;SDS011;67271;59.120;37.970;2023-07-31T03:40:40;9.93;;;4.22;;
77866;SDS011;67271;59.120;37.970;2023-07-31T03:43:06;7.03;;;3.97;;
77866;SDS011;67271;59.120;37.970;2023-07-31T03:45:32;7.28;;;3.78;;
77866;SDS011;67271;59.120;37.970;2023-07-31T03:47:58;6.05;;;3.65;;
77866;SDS011;67271;59.120;37.970;2023-07-31T03:50:25;6.93;;;3.80;;
77866;SDS011;67271;59.120;37.970;2023-07-31T03:52:51;10.13;;;4.15;;
77866;SDS011;67271;59.120;37.970;2023-07-31T03:55:17;7.10;;;3.90;;
77866;SDS011;67271;59.120;37.970;2023-07-31T03:57:43;5.80;;;3.60;;
77866;SDS011;67271;59.120;37.970;2023-07-31T04:00:09;7.38;;;3.55;;
77866;SDS011;67271;59.120;37.970;2023-07-31T04:02:40;6.10;;;3.83;;
77866;SDS011;67271;59.120;37.970;2023-07-31T04:05:06;7.35;;;3.35;;
77866;SDS011;67271;59.120;37.970;2023-07-31T04:07:33;5.93;;;3.10;;
77866;SDS011;67271;59.120;37.970;2023-07-31T04:09:59;8.68;;;3.25;;
77866;SDS011;67271;59.120;37.970;2023-07-31T04:12:25;4.85;;;3.10;;
77866;SDS011;67271;59.120;37.970;2023-07-31T04:14:51;7.95;;;3.72;;
77866;SDS011;67271;59.120;37.970;2023-07-31T04:17:17;7.22;;;3.20;;
77866;SDS011;67271;59.120;37.970;2023-07-31T04:19:43;5.90;;;3.10;;
77866;SDS011;67271;59.120;37.970;2023-07-31T04:22:09;4.55;;;3.03;;
77866;SDS011;67271;59.120;37.970;2023-07-31T04:24:35;7.97;;;3.13;;
77866;SDS011;67271;59.120;37.970;2023-07-31T04:27:01;5.57;;;3.22;;
77866;SDS011;67271;59.120;37.970;2023-07-31T04:29:27;4.28;;;3.13;;
77866;SDS011;67271;59.120;37.970;2023-07-31T04:31:53;4.22;;;2.85;;
77866;SDS011;67271;59.120;37.970;2023-07-31T04:34:19;6.15;;;3.50;;
77866;SDS011;67271;59.120;37.970;2023-07-31T04:36:44;6.97;;;3.60;;
77866;SDS011;67271;59.120;37.970;2023-07-31T04:39:10;5.75;;;3.35;;
77866;SDS011;67271;59.120;37.970;2023-07-31T04:41:36;6.55;;;2.90;;
77866;SDS011;67271;59.120;37.970;2023-07-31T04:44:02;5.32;;;3.38;;
77866;SDS011;67271;59.120;37.970;2023-07-31T04:46:29;4.60;;;2.90;;
77866;SDS011;67271;59.120;37.970;2023-07-31T04:48:55;7.15;;;3.00;;
77866;SDS011;67271;59.120;37.970;2023-07-31T04:51:22;7.97;;;3.60;;
77866;SDS011;67271;59.120;37.970;2023-07-31T04:53:49;4.03;;;3.28;;
77866;SDS011;67271;59.120;37.970;2023-07-31T04:56:17;6.85;;;3.00;;
77866;SDS011;67271;59.120;37.970;2023-07-31T04:58:43;6.30;;;3.60;;
77866;SDS011;67271;59.120;37.970;2023-07-31T05:01:09;6.75;;;3.60;;
77866;SDS011;67271;59.120;37.970;2023-07-31T05:03:35;5.15;;;3.10;;
77866;SDS011;67271;59.120;37.970;2023-07-31T05:06:00;4.53;;;3.30;;
77866;SDS011;67271;59.120;37.970;2023-07-31T05:08:26;6.97;;;3.47;;
77866;SDS011;67271;59.120;37.970;2023-07-31T05:10:52;4.63;;;3.05;;
77866;SDS011;67271;59.120;37.970;2023-07-31T05:13:18;4.90;;;3.50;;
77866;SDS011;67271;59.120;37.970;2023-07-31T05:15:44;5.82;;;3.33;;
77866;SDS011;67271;59.120;37.970;2023-07-31T05:18:10;6.45;;;4.05;;
77866;SDS011;67271;59.120;37.970;2023-07-31T05:20:36;14.90;;;3.95;;
77866;SDS011;67271;59.120;37.970;2023-07-31T05:23:02;10.55;;;3.72;;
77866;SDS011;67271;59.120;37.970;2023-07-31T05:25:28;7.00;;;4.80;;
77866;SDS011;67271;59.120;37.970;2023-07-31T05:27:54;7.22;;;3.80;;
77866;SDS011;67271;59.120;37.970;2023-07-31T05:30:20;9.95;;;4.20;;
77866;SDS011;67271;59.120;37.970;2023-07-31T05:32:46;8.50;;;3.63;;
77866;SDS011;67271;59.120;37.970;2023-07-31T05:35:12;8.27;;;4.07;;
77866;SDS011;67271;59.120;37.970;2023-07-31T05:37:38;12.15;;;4.20;;
77866;SDS011;67271;59.120;37.970;2023-07-31T05:40:04;7.35;;;3.97;;
77866;SDS011;67271;59.120;37.970;2023-07-31T05:42:31;10.25;;;4.82;;
77866;SDS011;67271;59.120;37.970;2023-07-31T05:44:56;11.73;;;4.72;;
77866;SDS011;67271;59.120;37.970;2023-07-31T05:47:22;10.95;;;4.05;;
77866;SDS011;67271;59.120;37.970;2023-07-31T05:49:48;5.45;;;3.85;;
77866;SDS011;67271;59.120;37.970;2023-07-31T05:52:14;20.85;;;4.85;;
77866;SDS011;67271;59.120;37.970;2023-07-31T05:54:43;13.85;;;4.65;;
77866;SDS011;67271;59.120;37.970;2023-07-31T05:57:11;5.68;;;3.75;;
77866;SDS011;67271;59.120;37.970;2023-07-31T05:59:37;8.43;;;4.20;;
77866;SDS011;67271;59.120;37.970;2023-07-31T06:02:03;6.57;;;4.10;;
77866;SDS011;67271;59.120;37.970;2023-07-31T06:04:29;8.02;;;3.55;;
77866;SDS011;67271;59.120;37.970;2023-07-31T06:06:55;7.20;;;4.60;;
77866;SDS011;67271;59.120;37.970;2023-07-31T06:09:21;8.98;;;4.00;;
77866;SDS011;67271;59.120;37.970;2023-07-31T06:11:47;6.13;;;3.97;;
77866;SDS011;67271;59.120;37.970;2023-07-31T06:14:13;4.30;;;3.35;;
77866;SDS011;67271;59.120;37.970;2023-07-31T06:16:40;4.82;;;3.60;;
77866;SDS011;67271;59.120;37.970;2023-07-31T06:19:06;6.65;;;4.13;;
77866;SDS011;67271;59.120;37.970;2023-07-31T06:21:32;4.53;;;3.47;;
77866;SDS011;67271;59.120;37.970;2023-07-31T06:23:59;8.30;;;4.20;;
77866;SDS011;67271;59.120;37.970;2023-07-31T06:26:24;8.05;;;3.78;;
77866;SDS011;67271;59.120;37.970;2023-07-31T06:28:50;7.55;;;3.90;;
77866;SDS011;67271;59.120;37.970;2023-07-31T06:31:16;6.53;;;3.60;;
77866;SDS011;67271;59.120;37.970;2023-07-31T06:33:45;8.05;;;3.40;;
77866;SDS011;67271;59.120;37.970;2023-07-31T06:36:11;4.88;;;3.08;;
77866;SDS011;67271;59.120;37.970;2023-07-31T06:38:37;7.82;;;3.58;;
77866;SDS011;67271;59.120;37.970;2023-07-31T06:41:03;4.45;;;2.75;;
77866;SDS011;67271;59.120;37.970;2023-07-31T06:43:29;5.80;;;2.70;;
77866;SDS011;67271;59.120;37.970;2023-07-31T06:45:55;4.88;;;3.30;;
77866;SDS011;67271;59.120;37.970;2023-07-31T06:48:21;13.32;;;3.60;;
77866;SDS011;67271;59.120;37.970;2023-07-31T06:50:46;5.15;;;3.20;;
77866;SDS011;67271;59.120;37.970;2023-07-31T06:53:12;5.70;;;3.22;;
77866;SDS011;67271;59.120;37.970;2023-07-31T06:55:38;6.93;;;3.45;;
77866;SDS011;67271;59.120;37.970;2023-07-31T06:58:07;9.00;;;3.42;;
77866;SDS011;67271;59.120;37.970;2023-07-31T07:00:33;5.35;;;3.05;;
77866;SDS011;67271;59.120;37.970;2023-07-31T07:02:59;6.10;;;3.58;;
77866;SDS011;67271;59.120;37.970;2023-07-31T07:05:25;7.25;;;3.33;;
77866;SDS011;67271;59.120;37.970;2023-07-31T07:07:51;4.38;;;2.90;;
77866;SDS011;67271;59.120;37.970;2023-07-31T07:10:17;5.65;;;2.90;;
77866;SDS011;67271;59.120;37.970;2023-07-31T07:12:43;9.55;;;3.38;;
77866;SDS011;67271;59.120;37.970;2023-07-31T07:15:09;6.35;;;3.22;;
77866;SDS011;67271;59.120;37.970;2023-07-31T07:17:37;5.53;;;2.63;;
77866;SDS011;67271;59.120;37.970;2023-07-31T07:20:03;6.10;;;3.00;;
77866;SDS011;67271;59.120;37.970;2023-07-31T07:22:30;5.40;;;2.92;;
77866;SDS011;67271;59.120;37.970;2023-07-31T07:24:55;4.57;;;2.92;;
77866;SDS011;67271;59.120;37.970;2023-07-31T07:27:21;3.53;;;2.70;;
77866;SDS011;67271;59.120;37.970;2023-07-31T07:29:49;5.03;;;2.88;;
77866;SDS011;67271;59.120;37.970;2023-07-31T07:32:15;5.38;;;2.60;;
77866;SDS011;67271;59.120;37.970;2023-07-31T07:34:42;5.82;;;2.85;;
77866;SDS011;67271;59.120;37.970;2023-07-31T07:37:08;11.50;;;3.20;;
77866;SDS011;67271;59.120;37.970;2023-07-31T07:39:34;6.45;;;3.17;;
77866;SDS011;67271;59.120;37.970;2023-07-31T07:42:02;4.93;;;3.15;;
77866;SDS011;67271;59.120;37.970;2023-07-31T07:44:28;6.55;;;3.10;;
77866;SDS011;67271;59.120;37.970;2023-07-31T07:46:54;9.23;;;3.17;;
77866;SDS011;67271;59.120;37.970;2023-07-31T07:49:20;3.58;;;2.70;;
77866;SDS011;67271;59.120;37.970;2023-07-31T07:51:50;5.90;;;2.80;;
77866;SDS011;67271;59.120;37.970;2023-07-31T07:54:16;6.22;;;3.20;;
77866;SDS011;67271;59.120;37.970;2023-07-31T07:56:46;5.88;;;2.97;;
77866;SDS011;67271;59.120;37.970;2023-07-31T07:59:12;5.10;;;3.35;;
77866;SDS011;67271;59.120;37.970;2023-07-31T08:01:38;9.73;;;3.80;;
77866;SDS011;67271;59.120;37.970;2023-07-31T08:04:04;6.80;;;2.90;;
77866;SDS011;67271;59.120;37.970;2023-07-31T08:06:30;4.65;;;2.50;;
77866;SDS011;67271;59.120;37.970;2023-07-31T08:08:56;6.53;;;3.25;;
77866;SDS011;67271;59.120;37.970;2023-07-31T08:11:21;5.57;;;2.90;;
77866;SDS011;67271;59.120;37.970;2023-07-31T08:13:49;5.93;;;2.70;;
77866;SDS011;67271;59.120;37.970;2023-07-31T08:16:15;5.53;;;2.80;;
77866;SDS011;67271;59.120;37.970;2023-07-31T08:18:41;4.65;;;2.80;;
77866;SDS011;67271;59.120;37.970;2023-07-31T08:21:12;4.03;;;3.08;;
77866;SDS011;67271;59.120;37.970;2023-07-31T08:23:38;4.60;;;2.78;;
77866;SDS011;67271;59.120;37.970;2023-07-31T08:26:04;7.38;;;3.22;;
77866;SDS011;67271;59.120;37.970;2023-07-31T08:28:30;4.57;;;3.15;;
77866;SDS011;67271;59.120;37.970;2023-07-31T08:30:56;7.00;;;3.20;;
77866;SDS011;67271;59.120;37.970;2023-07-31T08:33:21;7.85;;;2.63;;
77866;SDS011;67271;59.120;37.970;2023-07-31T08:35:47;4.05;;;3.08;;
77866;SDS011;67271;59.120;37.970;2023-07-31T08:38:13;5.70;;;3.20;;
77866;SDS011;67271;59.120;37.970;2023-07-31T08:40:39;3.95;;;2.75;;
77866;SDS011;67271;59.120;37.970;2023-07-31T08:43:07;4.10;;;2.78;;
77866;SDS011;67271;59.120;37.970;2023-07-31T08:45:32;4.05;;;2.63;;
77866;SDS011;67271;59.120;37.970;2023-07-31T08:47:59;5.30;;;3.28;;
77866;SDS011;67271;59.120;37.970;2023-07-31T08:50:26;8.15;;;3.22;;
77866;SDS011;67271;59.120;37.970;2023-07-31T08:52:53;5.50;;;2.90;;
77866;SDS011;67271;59.120;37.970;2023-07-31T08:55:19;6.13;;;2.65;;
77866;SDS011;67271;59.120;37.970;2023-07-31T08:57:50;8.07;;;2.90;;
77866;SDS011;67271;59.120;37.970;2023-07-31T09:00:18;5.13;;;3.40;;
77866;SDS011;67271;59.120;37.970;2023-07-31T09:03:02;6.70;;;3.15;;
77866;SDS011;67271;59.120;37.970;2023-07-31T09:05:32;6.13;;;2.70;;
77866;SDS011;67271;59.120;37.970;2023-07-31T09:07:58;11.70;;;2.80;;
77866;SDS011;67271;59.120;37.970;2023-07-31T09:10:26;3.58;;;2.60;;
77866;SDS011;67271;59.120;37.970;2023-07-31T09:12:52;8.48;;;2.63;;
77866;SDS011;67271;59.120;37.970;2023-07-31T09:15:18;5.65;;;2.60;;
77866;SDS011;67271;59.120;37.970;2023-07-31T09:17:46;4.88;;;2.67;;
77866;SDS011;67271;59.120;37.970;2023-07-31T09:22:39;4.53;;;2.90;;
77866;SDS011;67271;59.120;37.970;2023-07-31T09:25:24;6.55;;;2.60;;
77866;SDS011;67271;59.120;37.970;2023-07-31T09:27:52;4.47;;;2.47;;
77866;SDS011;67271;59.120;37.970;2023-07-31T09:30:21;5.45;;;2.70;;
77866;SDS011;67271;59.120;37.970;2023-07-31T09:32:47;4.82;;;2.33;;
77866;SDS011;67271;59.120;37.970;2023-07-31T09:37:41;3.97;;;2.58;;
77866;SDS011;67271;59.120;37.970;2023-07-31T09:40:08;3.25;;;2.42;;
77866;SDS011;67271;59.120;37.970;2023-07-31T09:42:50;12.55;;;2.60;;
77866;SDS011;67271;59.120;37.970;2023-07-31T09:45:16;3.90;;;2.63;;
77866;SDS011;67271;59.120;37.970;2023-07-31T09:47:47;4.40;;;2.70;;
77866;SDS011;67271;59.120;37.970;2023-07-31T09:50:16;4.20;;;2.35;;
77866;SDS011;67271;59.120;37.970;2023-07-31T09:52:42;6.28;;;3.45;;
77866;SDS011;67271;59.120;37.970;2023-07-31T09:55:09;4.35;;;3.13;;
77866;SDS011;67271;59.120;37.970;2023-07-31T09:57:46;4.70;;;3.30;;
77866;SDS011;67271;59.120;37.970;2023-07-31T10:00:14;6.80;;;3.53;;
77866;SDS011;67271;59.120;37.970;2023-07-31T10:02:47;4.10;;;2.78;;
77866;SDS011;67271;59.120;37.970;2023-07-31T10:05:14;3.95;;;2.63;;
77866;SDS011;67271;59.120;37.970;2023-07-31T10:07:45;4.28;;;3.05;;
77866;SDS011;67271;59.120;37.970;2023-07-31T10:10:20;3.50;;;2.60;;
77866;SDS011;67271;59.120;37.970;2023-07-31T10:12:50;4.95;;;2.80;;
77866;SDS011;67271;59.120;37.970;2023-07-31T10:15:18;5.32;;;2.97;;
77866;SDS011;67271;59.120;37.970;2023-07-31T10:17:47;6.82;;;2.92;;
77866;SDS011;67271;59.120;37.970;2023-07-31T10:20:14;4.47;;;2.58;;
77866;SDS011;67271;59.120;37.970;2023-07-31T10:22:44;3.08;;;2.58;;
77866;SDS011;67271;59.120;37.970;2023-07-31T10:25:13;3.15;;;2.53;;
77866;SDS011;67271;59.120;37.970;2023-07-31T10:27:41;3.97;;;2.75;;
77866;SDS011;67271;59.120;37.970;2023-07-31T10:30:08;5.03;;;2.90;;
77866;SDS011;67271;59.120;37.970;2023-07-31T10:32:38;5.05;;;3.10;;
77866;SDS011;67271;59.120;37.970;2023-07-31T10:35:06;4.00;;;3.13;;
77866;SDS011;67271;59.120;37.970;2023-07-31T10:37:40;6.70;;;3.70;;
77866;SDS011;67271;59.120;37.970;2023-07-31T10:40:12;6.68;;;3.45;;
77866;SDS011;67271;59.120;37.970;2023-07-31T10:42:50;4.47;;;2.65;;
77866;SDS011;67271;59.120;37.970;2023-07-31T10:45:39;3.00;;;2.67;;
77866;SDS011;67271;59.120;37.970;2023-07-31T10:48:14;3.53;;;2.63;;
77866;SDS011;67271;59.120;37.970;2023-07-31T10:50:51;5.72;;;3.00;;
77866;SDS011;67271;59.120;37.970;2023-07-31T10:53:30;4.30;;;2.85;;
77866;SDS011;67271;59.120;37.970;2023-07-31T10:58:26;8.73;;;2.75;;
77866;SDS011;67271;59.120;37.970;2023-07-31T11:00:56;3.75;;;2.75;;
77866;SDS011;67271;59.120;37.970;2023-07-31T11:03:25;9.98;;;3.40;;
77866;SDS011;67271;59.120;37.970;2023-07-31T11:13:31;4.10;;;2.97;;
77866;SDS011;67271;59.120;37.970;2023-07-31T11:16:20;3.92;;;3.15;;
77866;SDS011;67271;59.120;37.970;2023-07-31T11:18:48;5.68;;;2.55;;
77866;SDS011;67271;59.120;37.970;2023-07-31T11:21:23;3.90;;;2.63;;
77866;SDS011;67271;59.120;37.970;2023-07-31T11:23:50;5.85;;;2.72;;
77866;SDS011;67271;59.120;37.970;2023-07-31T11:26:18;9.80;;;2.65;;
77866;SDS011;67271;59.120;37.970;2023-07-31T11:28:46;4.72;;;3.15;;
77866;SDS011;67271;59.120;37.970;2023-07-31T11:31:17;11.02;;;4.20;;
77866;SDS011;67271;59.120;37.970;2023-07-31T11:33:44;8.15;;;3.75;;
77866;SDS011;67271;59.120;37.970;2023-07-31T11:36:20;9.32;;;4.45;;
77866;SDS011;67271;59.120;37.970;2023-07-31T11:38:46;6.57;;;3.85;;
77866;SDS011;67271;59.120;37.970;2023-07-31T11:41:13;6.28;;;3.55;;
77866;SDS011;67271;59.120;37.970;2023-07-31T11:43:41;9.70;;;3.67;;
77866;SDS011;67271;59.120;37.970;2023-07-31T11:46:07;8.55;;;3.15;;
77866;SDS011;67271;59.120;37.970;2023-07-31T11:48:33;5.50;;;3.33;;
77866;SDS011;67271;59.120;37.970;2023-07-31T11:51:02;8.25;;;4.55;;
77866;SDS011;67271;59.120;37.970;2023-07-31T11:53:50;10.32;;;3.30;;
77866;SDS011;67271;59.120;37.970;2023-07-31T11:56:19;5.78;;;3.03;;
77866;SDS011;67271;59.120;37.970;2023-07-31T11:58:48;5.05;;;2.78;;
77866;SDS011;67271;59.120;37.970;2023-07-31T12:01:19;7.88;;;3.50;;
77866;SDS011;67271;59.120;37.970;2023-07-31T12:03:47;5.20;;;3.05;;
77866;SDS011;67271;59.120;37.970;2023-07-31T12:06:14;5.95;;;3.25;;
77866;SDS011;67271;59.120;37.970;2023-07-31T12:08:40;3.95;;;2.88;;
77866;SDS011;67271;59.120;37.970;2023-07-31T12:11:07;7.15;;;2.97;;
77866;SDS011;67271;59.120;37.970;2023-07-31T12:13:36;4.45;;;2.95;;
77866;SDS011;67271;59.120;37.970;2023-07-31T12:16:03;6.15;;;2.95;;
77866;SDS011;67271;59.120;37.970;2023-07-31T12:18:33;6.22;;;3.13;;
77866;SDS011;67271;59.120;37.970;2023-07-31T12:21:02;6.10;;;3.83;;
77866;SDS011;67271;59.120;37.970;2023-07-31T12:23:30;7.05;;;3.72;;
77866;SDS011;67271;59.120;37.970;2023-07-31T12:28:29;5.53;;;3.65;;
77866;SDS011;67271;59.120;37.970;2023-07-31T12:30:59;6.45;;;3.80;;
77866;SDS011;67271;59.120;37.970;2023-07-31T12:33:32;9.85;;;3.42;;
77866;SDS011;67271;59.120;37.970;2023-07-31T12:36:25;7.45;;;3.03;;
77866;SDS011;67271;59.120;37.970;2023-07-31T12:38:50;8.93;;;3.65;;
77866;SDS011;67271;59.120;37.970;2023-07-31T12:41:17;4.90;;;3.55;;
77866;SDS011;67271;59.120;37.970;2023-07-31T12:43:44;8.98;;;3.83;;
77866;SDS011;67271;59.120;37.970;2023-07-31T12:46:10;4.60;;;2.72;;
77866;SDS011;67271;59.120;37.970;2023-07-31T12:48:37;4.00;;;2.75;;
77866;SDS011;67271;59.120;37.970;2023-07-31T12:51:04;5.78;;;2.95;;
77866;SDS011;67271;59.120;37.970;2023-07-31T12:53:30;4.35;;;2.95;;
77866;SDS011;67271;59.120;37.970;2023-07-31T12:55:56;5.50;;;3.25;;
77866;SDS011;67271;59.120;37.970;2023-07-31T12:58:22;6.78;;;3.70;;
77866;SDS011;67271;59.120;37.970;2023-07-31T13:00:48;3.65;;;3.25;;
77866;SDS011;67271;59.120;37.970;2023-07-31T13:03:14;6.53;;;3.17;;
77866;SDS011;67271;59.120;37.970;2023-07-31T13:05:40;6.63;;;3.42;;
77866;SDS011;67271;59.120;37.970;2023-07-31T13:08:06;8.15;;;3.53;;
77866;SDS011;67271;59.120;37.970;2023-07-31T13:10:32;7.72;;;4.10;;
77866;SDS011;67271;59.120;37.970;2023-07-31T13:12:57;12.60;;;4.35;;
77866;SDS011;67271;59.120;37.970;2023-07-31T13:15:23;6.97;;;4.10;;
77866;SDS011;67271;59.120;37.970;2023-07-31T13:17:49;8.27;;;4.82;;
77866;SDS011;67271;59.120;37.970;2023-07-31T13:20:15;7.15;;;4.40;;
77866;SDS011;67271;59.120;37.970;2023-07-31T13:22:41;7.32;;;3.83;;
77866;SDS011;67271;59.120;37.970;2023-07-31T13:25:07;9.88;;;4.20;;
77866;SDS011;67271;59.120;37.970;2023-07-31T13:27:33;5.28;;;3.67;;
77866;SDS011;67271;59.120;37.970;2023-07-31T13:30:00;11.85;;;4.18;;
77866;SDS011;67271;59.120;37.970;2023-07-31T13:32:26;9.10;;;4.05;;
77866;SDS011;67271;59.120;37.970;2023-07-31T13:34:52;9.90;;;4.20;;
77866;SDS011;67271;59.120;37.970;2023-07-31T13:37:18;10.95;;;4.47;;
77866;SDS011;67271;59.120;37.970;2023-07-31T13:39:44;10.05;;;3.80;;
77866;SDS011;67271;59.120;37.970;2023-07-31T13:42:10;8.23;;;3.75;;
77866;SDS011;67271;59.120;37.970;2023-07-31T13:44:41;6.18;;;3.70;;
77866;SDS011;67271;59.120;37.970;2023-07-31T13:47:08;12.07;;;3.40;;
77866;SDS011;67271;59.120;37.970;2023-07-31T13:49:34;11.98;;;3.38;;
77866;SDS011;67271;59.120;37.970;2023-07-31T13:52:01;6.22;;;3.97;;
77866;SDS011;67271;59.120;37.970;2023-07-31T13:54:27;10.65;;;4.00;;
77866;SDS011;67271;59.120;37.970;2023-07-31T13:56:53;12.98;;;3.83;;
77866;SDS011;67271;59.120;37.970;2023-07-31T13:59:19;6.65;;;3.33;;
77866;SDS011;67271;59.120;37.970;2023-07-31T14:01:46;9.90;;;4.22;;
77866;SDS011;67271;59.120;37.970;2023-07-31T14:04:12;5.97;;;3.63;;
77866;SDS011;67271;59.120;37.970;2023-07-31T14:06:38;6.88;;;3.88;;
77866;SDS011;67271;59.120;37.970;2023-07-31T14:09:04;11.98;;;4.35;;
77866;SDS011;67271;59.120;37.970;2023-07-31T14:11:33;5.97;;;3.65;;
77866;SDS011;67271;59.120;37.970;2023-07-31T14:13:59;16.00;;;4.15;;
77866;SDS011;67271;59.120;37.970;2023-07-31T14:16:27;7.53;;;4.03;;
77866;SDS011;67271;59.120;37.970;2023-07-31T14:18:53;7.45;;;4.13;;
77866;SDS011;67271;59.120;37.970;2023-07-31T14:21:19;9.18;;;4.10;;
77866;SDS011;67271;59.120;37.970;2023-07-31T14:23:45;10.07;;;4.43;;
77866;SDS011;67271;59.120;37.970;2023-07-31T14:26:11;5.78;;;3.63;;
77866;SDS011;67271;59.120;37.970;2023-07-31T14:28:37;7.20;;;3.55;;
77866;SDS011;67271;59.120;37.970;2023-07-31T14:33:31;10.07;;;4.05;;
77866;SDS011;67271;59.120;37.970;2023-07-31T14:35:57;10.05;;;4.05;;
77866;SDS011;67271;59.120;37.970;2023-07-31T14:38:24;11.35;;;3.95;;
77866;SDS011;67271;59.120;37.970;2023-07-31T14:40:49;6.65;;;4.07;;
77866;SDS011;67271;59.120;37.970;2023-07-31T14:43:16;7.85;;;3.70;;
77866;SDS011;67271;59.120;37.970;2023-07-31T14:45:42;11.60;;;4.85;;
77866;SDS011;67271;59.120;37.970;2023-07-31T14:48:08;6.13;;;3.65;;
77866;SDS011;67271;59.120;37.970;2023-07-31T14:50:34;8.15;;;3.90;;
77866;SDS011;67271;59.120;37.970;2023-07-31T14:53:00;10.90;;;3.95;;
77866;SDS011;67271;59.120;37.970;2023-07-31T14:55:26;9.25;;;4.18;;
77866;SDS011;67271;59.120;37.970;2023-07-31T14:57:52;11.35;;;4.05;;
77866;SDS011;67271;59.120;37.970;2023-07-31T15:00:17;4.70;;;3.60;;
77866;SDS011;67271;59.120;37.970;2023-07-31T15:02:43;9.10;;;3.72;;